createdAt,value
2022-09-22T00:01:33.705Z,3.70
2022-09-22T00:04:06.069Z,4.30
2022-09-22T00:06:38.873Z,2.42
2022-09-22T00:09:09.407Z,2.33
2022-09-22T00:11:40.318Z,2.97
2022-09-22T00:14:10.934Z,4.75
2022-09-22T00:16:42.377Z,2.70
2022-09-22T00:19:16.225Z,2.58
2022-09-22T00:21:47.482Z,1.92
2022-09-22T00:24:16.867Z,2.60
2022-09-22T00:26:45.350Z,4.07
2022-09-22T00:29:14.346Z,2.95
2022-09-22T00:31:44.551Z,2.60
2022-09-22T00:34:17.005Z,1.52
2022-09-22T00:36:47.576Z,1.73
2022-09-22T00:39:17.333Z,2.15
2022-09-22T00:41:57.586Z,3.55
2022-09-22T00:44:38.585Z,2.13
2022-09-22T00:47:18.568Z,4.22
2022-09-22T00:49:51.809Z,1.95
2022-09-22T00:52:26.557Z,4.13
2022-09-22T00:54:58.240Z,1.85
2022-09-22T00:57:29.615Z,4.65
2022-09-22T00:59:58.693Z,5.93
2022-09-22T01:02:27.138Z,3.53
2022-09-22T01:04:55.502Z,3.40
2022-09-22T01:07:29.055Z,2.28
2022-09-22T01:09:58.013Z,1.73
2022-09-22T01:12:28.204Z,2.72
2022-09-22T01:15:14.672Z,2.78
2022-09-22T01:17:52.619Z,1.77
2022-09-22T01:20:41.793Z,6.45
2022-09-22T01:23:42.610Z,2.38
2022-09-22T01:26:42.967Z,3.33
2022-09-22T01:29:32.483Z,2.20
2022-09-22T01:32:10.751Z,7.40
2022-09-22T01:34:47.255Z,5.22
2022-09-22T01:37:23.189Z,3.60
2022-09-22T01:39:56.737Z,4.40
2022-09-22T01:42:31.515Z,3.97
2022-09-22T01:45:06.229Z,4.03
2022-09-22T01:47:40.738Z,3.10
2022-09-22T01:50:16.514Z,2.63
2022-09-22T01:52:45.795Z,2.15
2022-09-22T01:55:20.545Z,2.47
2022-09-22T01:57:54.575Z,5.70
2022-09-22T02:00:24.016Z,3.10
2022-09-22T02:02:59.183Z,4.63
2022-09-22T02:05:33.796Z,1.90
2022-09-22T02:08:05.294Z,3.33
2022-09-22T02:10:37.831Z,1.92
2022-09-22T02:13:06.190Z,1.77
2022-09-22T02:15:52.708Z,2.42
2022-09-22T02:18:27.196Z,1.73
2022-09-22T02:20:55.824Z,1.67
2022-09-22T02:23:24.188Z,7.25
2022-09-22T02:25:54.583Z,2.15
2022-09-22T02:28:25.049Z,1.85
2022-09-22T02:31:18.457Z,3.95
2022-09-22T02:33:47.152Z,2.33
2022-09-22T02:36:29.586Z,2.70
2022-09-22T02:39:04.808Z,3.63
2022-09-22T02:41:41.811Z,2.95
2022-09-22T02:44:16.816Z,1.92
2022-09-22T02:46:50.045Z,1.77
2022-09-22T02:49:21.081Z,1.45
2022-09-22T02:51:50.520Z,3.25
2022-09-22T02:54:18.821Z,1.48
2022-09-22T02:56:47.566Z,2.03
2022-09-22T02:59:15.953Z,4.03
2022-09-22T03:01:44.452Z,3.60
2022-09-22T03:04:13.062Z,2.67
2022-09-22T03:06:42.718Z,2.70
2022-09-22T03:09:11.055Z,2.60
2022-09-22T03:11:39.577Z,3.28
2022-09-22T03:14:07.845Z,1.60
2022-09-22T03:16:36.197Z,1.80
2022-09-22T03:19:04.994Z,2.33
2022-09-22T03:21:33.365Z,3.22
2022-09-22T03:24:03.373Z,3.58
2022-09-22T03:26:32.051Z,1.55
2022-09-22T03:29:00.370Z,2.10
2022-09-22T03:31:28.753Z,3.45
2022-09-22T03:33:57.297Z,2.65
2022-09-22T03:36:25.975Z,2.13
2022-09-22T03:38:54.418Z,1.50
2022-09-22T03:41:24.201Z,2.75
2022-09-22T03:43:52.960Z,2.67
2022-09-22T03:46:21.302Z,3.10
2022-09-22T03:48:49.953Z,1.13
2022-09-22T03:51:19.381Z,2.55
2022-09-22T03:53:47.545Z,1.92
2022-09-22T03:56:17.459Z,1.60
2022-09-22T03:58:47.223Z,1.98
2022-09-22T04:01:15.573Z,4.20
2022-09-22T04:03:44.250Z,1.38
2022-09-22T04:06:12.926Z,1.38
2022-09-22T04:08:41.497Z,4.93
2022-09-22T04:11:10.101Z,1.77
2022-09-22T04:13:41.555Z,1.38
2022-09-22T04:16:14.881Z,1.23
2022-09-22T04:18:43.270Z,2.33
2022-09-22T04:21:11.751Z,2.13
2022-09-22T04:23:40.263Z,2.38
2022-09-22T04:26:08.818Z,1.95
2022-09-22T04:28:37.134Z,1.73
2022-09-22T04:31:06.060Z,2.53
2022-09-22T04:33:36.049Z,1.52
2022-09-22T04:36:04.422Z,2.80
2022-09-22T04:38:33.015Z,1.80
2022-09-22T04:41:01.571Z,2.75
2022-09-22T04:43:31.162Z,2.05
2022-09-22T04:45:59.677Z,2.30
2022-09-22T04:48:28.150Z,2.20
2022-09-22T04:50:57.908Z,4.47
2022-09-22T04:53:26.612Z,2.47
2022-09-22T04:55:56.571Z,1.90
2022-09-22T04:58:25.030Z,3.67
2022-09-22T05:00:55.870Z,2.22
2022-09-22T05:03:24.379Z,1.65
2022-09-22T05:05:52.722Z,0.80
2022-09-22T05:08:22.690Z,1.92
2022-09-22T05:10:51.250Z,2.05
2022-09-22T05:13:19.710Z,3.13
2022-09-22T05:15:48.567Z,5.03
2022-09-22T05:18:16.969Z,5.28
2022-09-22T05:20:45.936Z,3.78
2022-09-22T05:23:14.490Z,2.88
2022-09-22T05:25:44.643Z,2.20
2022-09-22T05:28:13.594Z,6.03
2022-09-22T05:30:42.417Z,4.97
2022-09-22T05:33:10.768Z,2.17
2022-09-22T05:35:39.084Z,1.77
2022-09-22T05:38:07.742Z,4.57
2022-09-22T05:40:36.303Z,1.63
2022-09-22T05:43:06.080Z,7.57
2022-09-22T05:45:34.953Z,3.63
2022-09-22T05:48:03.481Z,3.55
2022-09-22T05:50:32.354Z,2.13
2022-09-22T05:53:05.905Z,1.85
2022-09-22T05:55:34.685Z,3.58
2022-09-22T05:58:05.145Z,4.45
2022-09-22T06:00:34.039Z,3.78
2022-09-22T06:03:02.532Z,2.72
2022-09-22T06:05:31.100Z,2.22
2022-09-22T06:08:02.898Z,2.42
2022-09-22T06:10:33.253Z,2.30
2022-09-22T06:13:02.721Z,3.38
2022-09-22T06:15:33.982Z,11.40
2022-09-22T06:18:02.923Z,1.83
2022-09-22T06:20:31.975Z,3.15
2022-09-22T06:23:00.377Z,1.33
2022-09-22T06:25:29.702Z,3.72
2022-09-22T06:28:04.802Z,1.73
2022-09-22T06:30:35.734Z,2.45
2022-09-22T06:33:04.531Z,3.90
2022-09-22T06:35:35.613Z,2.00
2022-09-22T06:38:04.626Z,1.67
2022-09-22T06:40:36.441Z,4.65
2022-09-22T06:43:07.639Z,6.45
2022-09-22T06:45:37.784Z,2.05
2022-09-22T06:48:10.164Z,2.03
2022-09-22T06:50:41.226Z,5.47
2022-09-22T06:53:12.545Z,3.53
2022-09-22T06:55:43.252Z,1.55
2022-09-22T06:58:12.837Z,5.07
2022-09-22T07:00:44.288Z,1.40
2022-09-22T07:03:19.647Z,2.00
2022-09-22T07:05:55.492Z,3.22
2022-09-22T07:08:24.927Z,2.35
2022-09-22T07:10:55.204Z,3.00
2022-09-22T07:13:24.049Z,2.00
2022-09-22T07:15:55.414Z,1.52
2022-09-22T07:18:24.037Z,2.40
2022-09-22T07:20:52.309Z,2.58
2022-09-22T07:23:21.434Z,2.13
2022-09-22T07:25:56.492Z,3.40
2022-09-22T07:28:25.919Z,4.25
2022-09-22T07:30:57.367Z,6.13
2022-09-22T07:33:25.987Z,1.63
2022-09-22T07:36:04.735Z,3.78
2022-09-22T07:38:36.420Z,2.58
2022-09-22T07:41:06.997Z,1.55
2022-09-22T07:43:36.352Z,3.80
2022-09-22T07:46:06.297Z,1.85
2022-09-22T07:48:37.832Z,3.90
2022-09-22T07:51:12.910Z,2.13
2022-09-22T07:53:45.875Z,1.02
2022-09-22T07:56:16.214Z,1.35
2022-09-22T07:58:50.006Z,1.42
2022-09-22T08:01:21.099Z,1.10
2022-09-22T08:03:50.545Z,2.50
2022-09-22T08:06:23.563Z,1.35
2022-09-22T08:08:56.663Z,1.85
2022-09-22T08:11:26.744Z,11.48
2022-09-22T08:13:57.182Z,6.22
2022-09-22T08:16:29.271Z,1.90
2022-09-22T08:18:59.315Z,1.20
2022-09-22T08:21:30.986Z,1.15
2022-09-22T08:24:00.937Z,0.63
2022-09-22T08:26:29.534Z,0.80
2022-09-22T08:28:59.032Z,3.33
2022-09-22T08:31:29.194Z,0.85
2022-09-22T08:33:57.769Z,10.93
2022-09-22T08:36:28.084Z,0.73
2022-09-22T08:38:57.925Z,2.33
2022-09-22T08:41:38.377Z,0.75
2022-09-22T08:44:22.333Z,3.47
2022-09-22T08:46:54.779Z,0.70
2022-09-22T08:49:44.356Z,0.95
2022-09-22T08:52:20.863Z,0.68
2022-09-22T08:54:50.097Z,2.17
2022-09-22T08:57:33.231Z,0.70
2022-09-22T09:00:06.476Z,1.63
2022-09-22T09:02:42.894Z,3.97
2022-09-22T09:05:55.997Z,0.70
2022-09-22T09:08:43.827Z,7.90
2022-09-22T09:14:12.216Z,0.60
2022-09-22T09:16:49.003Z,0.98
2022-09-22T09:19:23.197Z,0.52
2022-09-22T09:21:55.180Z,0.70
2022-09-22T09:27:24.272Z,0.70
2022-09-22T09:30:02.963Z,0.65
2022-09-22T09:32:38.849Z,0.55
2022-09-22T09:35:14.850Z,0.80
2022-09-22T09:37:46.170Z,0.70
2022-09-22T09:40:18.480Z,0.85
2022-09-22T09:42:51.080Z,1.33
2022-09-22T09:45:25.484Z,0.60
2022-09-22T09:48:07.668Z,0.50
2022-09-22T09:50:37.927Z,0.80
2022-09-22T09:53:08.681Z,0.68
2022-09-22T09:55:37.146Z,1.65
2022-09-22T09:58:08.425Z,0.65
2022-09-22T10:00:51.767Z,0.75
2022-09-22T10:03:27.984Z,1.33
2022-09-22T10:06:00.695Z,0.85
2022-09-22T10:08:35.166Z,1.02
2022-09-22T10:11:05.337Z,0.50
2022-09-22T10:13:36.422Z,1.45
2022-09-22T10:16:19.227Z,0.47
2022-09-22T10:18:48.712Z,5.50
2022-09-22T10:21:20.705Z,1.15
2022-09-22T10:23:51.733Z,0.65
2022-09-22T10:26:23.175Z,2.08
2022-09-22T10:29:18.215Z,1.42
2022-09-22T10:32:14.955Z,0.75
2022-09-22T10:37:25.967Z,0.73
2022-09-22T10:39:55.790Z,4.70
2022-09-22T10:42:33.471Z,1.25
2022-09-22T10:45:05.709Z,1.25
2022-09-22T10:47:51.418Z,0.60
2022-09-22T10:50:45.903Z,1.85
2022-09-22T10:53:36.528Z,0.75
2022-09-22T10:56:14.019Z,1.00
2022-09-22T10:59:21.288Z,2.03
2022-09-22T11:02:00.415Z,0.63
2022-09-22T11:04:57.738Z,1.25
2022-09-22T11:08:07.399Z,2.17
2022-09-22T11:11:01.946Z,0.70
2022-09-22T11:13:42.009Z,0.93
2022-09-22T11:16:34.541Z,0.60
2022-09-22T11:19:24.788Z,0.80
2022-09-22T11:22:13.418Z,1.90
2022-09-22T11:24:56.004Z,0.80
2022-09-22T11:27:37.635Z,0.57
2022-09-22T11:30:16.881Z,2.17
2022-09-22T11:33:05.737Z,1.33
2022-09-22T11:35:48.406Z,1.38
2022-09-22T11:38:30.547Z,0.73
2022-09-22T11:41:20.557Z,0.60
2022-09-22T11:44:34.419Z,1.85
2022-09-22T11:47:24.073Z,1.00
2022-09-22T11:50:11.680Z,1.30
2022-09-22T11:52:58.364Z,1.38
2022-09-22T11:55:36.549Z,2.28
2022-09-22T11:58:12.649Z,0.75
2022-09-22T12:00:47.221Z,0.70
2022-09-22T12:03:21.348Z,0.73
2022-09-22T12:05:54.414Z,0.75
2022-09-22T12:08:26.835Z,0.70
2022-09-22T12:10:56.505Z,1.00
2022-09-22T12:13:27.356Z,0.88
2022-09-22T12:16:07.025Z,0.85
2022-09-22T12:18:44.645Z,0.95
2022-09-22T12:21:29.465Z,1.60
2022-09-22T12:24:02.086Z,1.10
2022-09-22T12:26:33.070Z,1.15
2022-09-22T12:29:04.642Z,4.88
2022-09-22T12:31:36.092Z,0.70
2022-09-22T12:34:15.526Z,0.88
2022-09-22T12:36:44.440Z,1.67
2022-09-22T12:39:18.915Z,1.52
2022-09-22T12:41:52.351Z,0.50
2022-09-22T12:44:24.135Z,0.70
2022-09-22T12:46:54.771Z,0.80
2022-09-22T12:49:24.579Z,0.70
2022-09-22T12:51:53.358Z,0.60
2022-09-22T12:54:43.057Z,0.88
2022-09-22T12:57:29.464Z,0.73
2022-09-22T13:00:08.390Z,0.63
2022-09-22T13:02:43.551Z,1.55
2022-09-22T13:05:36.543Z,1.00
2022-09-22T13:08:05.583Z,1.73
2022-09-22T13:10:59.645Z,1.13
2022-09-22T13:13:37.707Z,0.82
2022-09-22T13:16:25.954Z,0.90
2022-09-22T13:19:00.532Z,0.85
2022-09-22T13:21:31.306Z,1.13
2022-09-22T13:24:01.724Z,1.25
2022-09-22T13:26:32.468Z,0.70
2022-09-22T13:29:07.115Z,2.80
2022-09-22T13:31:44.233Z,0.73
2022-09-22T13:34:29.168Z,0.70
2022-09-22T13:37:02.000Z,0.90
2022-09-22T13:39:35.135Z,0.70
2022-09-22T13:42:08.319Z,1.10
2022-09-22T13:44:41.925Z,1.20
2022-09-22T13:47:25.120Z,0.95
2022-09-22T13:49:56.342Z,1.13
2022-09-22T13:52:29.927Z,1.20
2022-09-22T13:55:01.723Z,2.05
2022-09-22T13:57:32.557Z,0.70
2022-09-22T14:00:02.249Z,0.85
2022-09-22T14:02:32.423Z,1.10
2022-09-22T14:05:04.125Z,0.73
2022-09-22T14:07:49.474Z,0.70
2022-09-22T14:10:28.020Z,1.38
2022-09-22T14:12:57.007Z,0.90
2022-09-22T14:15:43.599Z,0.85
2022-09-22T14:18:18.205Z,1.15
2022-09-22T14:20:46.687Z,0.85
2022-09-22T14:23:23.185Z,1.38
2022-09-22T14:25:51.681Z,2.30
2022-09-22T14:28:24.997Z,1.30
2022-09-22T14:30:53.739Z,1.33
2022-09-22T14:33:25.988Z,1.38
2022-09-22T14:36:01.921Z,0.75
2022-09-22T14:38:37.510Z,3.35
2022-09-22T14:41:23.235Z,0.82
2022-09-22T14:43:53.112Z,0.73
2022-09-22T14:46:25.592Z,1.08
2022-09-22T14:48:55.343Z,0.73
2022-09-22T14:51:26.187Z,1.02
2022-09-22T14:54:01.635Z,0.95
2022-09-22T14:56:34.110Z,3.03
2022-09-22T14:59:26.160Z,1.23
2022-09-22T15:02:13.614Z,1.17
2022-09-22T15:04:47.532Z,1.42
2022-09-22T15:07:24.758Z,1.15
2022-09-22T15:09:57.279Z,2.33
2022-09-22T15:12:37.880Z,1.70
2022-09-22T15:15:20.474Z,3.30
2022-09-22T15:18:08.044Z,1.27
2022-09-22T15:20:41.153Z,2.15
2022-09-22T15:23:22.015Z,1.20
2022-09-22T15:25:52.194Z,1.05
2022-09-22T15:28:23.772Z,0.82
2022-09-22T15:30:53.563Z,1.60
2022-09-22T15:33:22.803Z,1.13
2022-09-22T15:35:56.475Z,0.82
2022-09-22T15:38:27.941Z,0.80
2022-09-22T15:40:58.275Z,1.20
2022-09-22T15:43:30.895Z,1.45
2022-09-22T15:46:02.318Z,1.35
2022-09-22T15:48:32.997Z,0.82
2022-09-22T15:51:06.033Z,2.40
2022-09-22T15:53:35.863Z,0.68
2022-09-22T15:56:07.386Z,1.20
2022-09-22T15:58:38.036Z,1.10
2022-09-22T16:01:07.945Z,2.60
2022-09-22T16:03:41.066Z,2.20
2022-09-22T16:06:12.908Z,1.48
2022-09-22T16:08:44.619Z,5.13
2022-09-22T16:11:16.263Z,1.10
2022-09-22T16:13:45.155Z,2.15
2022-09-22T16:16:13.646Z,2.47
2022-09-22T16:18:42.361Z,2.38
2022-09-22T16:21:20.745Z,2.40
2022-09-22T16:23:51.266Z,1.70
2022-09-22T16:26:21.495Z,1.58
2022-09-22T16:28:49.886Z,3.20
2022-09-22T16:31:19.148Z,2.22
2022-09-22T16:33:54.061Z,1.83
2022-09-22T16:36:22.734Z,0.98
2022-09-22T16:38:51.432Z,1.95
2022-09-22T16:41:29.513Z,2.34
2022-09-22T16:43:59.286Z,2.97
2022-09-22T16:46:30.214Z,6.65
2022-09-22T16:49:00.795Z,1.35
2022-09-22T16:51:30.023Z,1.60
2022-09-22T16:53:58.720Z,1.63
2022-09-22T16:56:30.763Z,1.20
2022-09-22T16:59:01.333Z,1.52
2022-09-22T17:01:32.113Z,3.17
2022-09-22T17:04:00.639Z,1.58
2022-09-22T17:06:29.445Z,2.55
2022-09-22T17:08:59.989Z,5.15
2022-09-22T17:11:33.114Z,1.83
2022-09-22T17:14:04.655Z,2.03
2022-09-22T17:16:36.399Z,2.65
2022-09-22T17:19:06.856Z,1.80
2022-09-22T17:21:37.396Z,1.83
2022-09-22T17:24:09.314Z,1.58
2022-09-22T17:26:41.864Z,1.95
2022-09-22T17:29:11.027Z,3.03
2022-09-22T17:31:41.251Z,4.70
2022-09-22T17:34:10.589Z,2.15
2022-09-22T17:36:39.687Z,1.50
2022-09-22T17:39:10.559Z,1.50
2022-09-22T17:41:45.492Z,5.35
2022-09-22T17:44:19.210Z,5.00
2022-09-22T17:47:01.816Z,2.78
2022-09-22T17:49:47.496Z,3.90
2022-09-22T17:52:35.057Z,2.60
2022-09-22T17:55:08.167Z,3.22
2022-09-22T17:57:41.126Z,5.10
2022-09-22T18:00:13.113Z,3.72
2022-09-22T18:02:41.723Z,4.00
2022-09-22T18:05:12.921Z,1.90
2022-09-22T18:07:42.103Z,2.83
2022-09-22T18:10:12.627Z,2.08
2022-09-22T18:12:42.826Z,5.68
2022-09-22T18:15:13.977Z,4.10
2022-09-22T18:17:43.753Z,4.80
2022-09-22T18:20:14.085Z,2.47
2022-09-22T18:22:47.730Z,3.45
2022-09-22T18:25:19.509Z,2.72
2022-09-22T18:27:49.491Z,3.58
2022-09-22T18:30:19.879Z,2.28
2022-09-22T18:32:49.386Z,2.22
2022-09-22T18:35:18.571Z,4.15
2022-09-22T18:37:47.833Z,2.58
2022-09-22T18:40:17.169Z,1.60
2022-09-22T18:42:46.375Z,4.40
2022-09-22T18:45:17.007Z,3.88
2022-09-22T18:47:45.368Z,4.70
2022-09-22T18:50:14.280Z,2.60
2022-09-22T18:52:46.700Z,4.15
2022-09-22T18:55:18.830Z,4.25
2022-09-22T18:57:48.467Z,2.38
2022-09-22T19:00:20.922Z,3.30
2022-09-22T19:02:50.437Z,5.07
2022-09-22T19:05:19.602Z,5.25
2022-09-22T19:07:48.406Z,6.10
2022-09-22T19:10:21.782Z,4.53
2022-09-22T19:12:50.923Z,6.63
2022-09-22T19:15:21.360Z,7.18
2022-09-22T19:17:51.048Z,11.38
2022-09-22T19:20:23.348Z,12.25
2022-09-22T19:22:54.002Z,7.65
2022-09-22T19:25:23.558Z,13.13
2022-09-22T19:27:53.557Z,10.85
2022-09-22T19:30:27.552Z,12.18
2022-09-22T19:32:59.144Z,8.82
2022-09-22T19:35:29.473Z,7.00
2022-09-22T19:37:58.013Z,7.63
2022-09-22T19:40:26.950Z,7.80
2022-09-22T19:42:56.009Z,12.60
2022-09-22T19:45:27.485Z,13.77
2022-09-22T19:47:56.977Z,21.23
2022-09-22T19:50:27.394Z,17.05
2022-09-22T19:52:56.213Z,20.58
2022-09-22T19:55:24.893Z,15.63
2022-09-22T19:57:54.077Z,12.98
2022-09-22T20:00:26.229Z,13.20
2022-09-22T20:02:59.358Z,10.82
2022-09-22T20:05:30.559Z,15.75
2022-09-22T20:07:59.561Z,25.83
2022-09-22T20:10:28.803Z,20.45
2022-09-22T20:12:57.183Z,19.17
2022-09-22T20:15:26.494Z,15.70
2022-09-22T20:17:56.913Z,15.45
2022-09-22T20:20:28.748Z,15.15
2022-09-22T20:23:00.529Z,17.70
2022-09-22T20:25:31.277Z,16.10
2022-09-22T20:28:00.843Z,20.35
2022-09-22T20:30:29.472Z,14.30
2022-09-22T20:32:59.762Z,17.17
2022-09-22T20:35:28.520Z,19.95
2022-09-22T20:37:58.243Z,12.80
2022-09-22T20:40:27.943Z,20.73
2022-09-22T20:42:56.875Z,16.25
2022-09-22T20:45:25.401Z,25.63
2022-09-22T20:47:54.267Z,23.08
2022-09-22T20:50:24.350Z,35.28
2022-09-22T20:52:52.768Z,32.20
2022-09-22T20:55:22.223Z,39.38
2022-09-22T20:57:50.973Z,42.50
2022-09-22T21:00:19.585Z,39.45
2022-09-22T21:02:48.526Z,33.45
2022-09-22T21:05:17.395Z,28.08
2022-09-22T21:07:47.293Z,27.27
2022-09-22T21:10:41.364Z,33.15
2022-09-22T21:13:10.046Z,26.20
2022-09-22T21:15:39.223Z,25.60
2022-09-22T21:18:07.873Z,21.88
2022-09-22T21:20:36.579Z,20.50
2022-09-22T21:23:06.444Z,21.65
2022-09-22T21:25:35.020Z,26.08
2022-09-22T21:28:04.232Z,22.88
2022-09-22T21:30:32.924Z,23.40
2022-09-22T21:33:02.760Z,23.17
2022-09-22T21:35:31.612Z,13.98
2022-09-22T21:38:00.001Z,15.38
2022-09-22T21:40:29.874Z,18.65
2022-09-22T21:42:58.581Z,16.85
2022-09-22T21:45:27.067Z,14.82
2022-09-22T21:47:55.566Z,16.63
2022-09-22T21:50:24.287Z,17.70
2022-09-22T21:52:52.875Z,22.50
2022-09-22T21:55:21.409Z,18.42
2022-09-22T21:57:53.518Z,20.45
2022-09-22T22:01:17.141Z,21.15
2022-09-22T22:03:48.543Z,13.90
2022-09-22T22:06:19.397Z,21.60
2022-09-22T22:08:51.101Z,17.52
2022-09-22T22:11:22.345Z,20.38
2022-09-22T22:13:54.103Z,21.13
2022-09-22T22:16:24.807Z,17.05
2022-09-22T22:18:53.745Z,17.67
2022-09-22T22:21:23.859Z,16.23
2022-09-22T22:23:54.209Z,23.35
2022-09-22T22:26:26.349Z,23.08
2022-09-22T22:28:56.199Z,17.55
2022-09-22T22:31:25.416Z,18.48
2022-09-22T22:33:53.938Z,22.45
2022-09-22T22:36:24.144Z,16.30
2022-09-22T22:38:53.819Z,23.08
2022-09-22T22:41:22.161Z,19.95
2022-09-22T22:43:51.153Z,21.05
2022-09-22T22:46:21.476Z,22.15
2022-09-22T22:48:50.117Z,15.88
2022-09-22T22:51:21.745Z,19.55
2022-09-22T22:53:50.570Z,15.07
2022-09-22T22:56:20.407Z,17.40
2022-09-22T22:58:50.126Z,23.58
2022-09-22T23:01:22.447Z,14.45
2022-09-22T23:03:53.217Z,15.45
2022-09-22T23:06:23.414Z,16.63
2022-09-22T23:08:52.656Z,25.75
2022-09-22T23:11:23.965Z,19.83
2022-09-22T23:13:54.413Z,14.80
2022-09-22T23:16:25.627Z,19.50
2022-09-22T23:18:54.677Z,17.00
2022-09-22T23:21:24.167Z,19.42
2022-09-22T23:23:52.449Z,18.17
2022-09-22T23:26:21.372Z,18.65
2022-09-22T23:28:49.796Z,18.90
2022-09-22T23:31:21.545Z,16.80
2022-09-22T23:33:52.886Z,20.80
2022-09-22T23:36:22.777Z,17.15
2022-09-22T23:38:54.556Z,13.35
2022-09-22T23:41:23.208Z,14.27
2022-09-22T23:43:52.073Z,13.43
2022-09-22T23:46:21.231Z,14.15
2022-09-22T23:48:51.222Z,23.55
2022-09-22T23:51:20.038Z,13.18
2022-09-22T23:53:48.477Z,14.70
2022-09-22T23:56:16.729Z,17.88
2022-09-22T23:58:45.449Z,14.35
